createdAt,value
2017-12-21T00:00:42.614Z,14.03
2017-12-21T00:03:10.365Z,15.00
2017-12-21T00:05:38.833Z,11.27
2017-12-21T00:08:06.516Z,12.17
2017-12-21T00:10:34.969Z,12.77
2017-12-21T00:13:02.644Z,16.80
2017-12-21T00:15:30.453Z,18.60
2017-12-21T00:17:58.160Z,16.40
2017-12-21T00:20:25.815Z,15.30
2017-12-21T00:22:53.895Z,16.97
2017-12-21T00:25:21.634Z,15.03
2017-12-21T00:27:49.391Z,13.37
2017-12-21T00:30:17.121Z,16.80
2017-12-21T00:32:45.861Z,16.20
2017-12-21T00:35:13.569Z,7.47
2017-12-21T00:37:41.342Z,16.43
2017-12-21T00:40:09.818Z,14.40
2017-12-21T00:42:38.297Z,17.40
2017-12-21T00:45:06.753Z,14.40
2017-12-21T00:47:34.360Z,14.50
2017-12-21T00:50:02.189Z,14.57
2017-12-21T00:52:29.759Z,9.90
2017-12-21T00:54:57.589Z,13.20
2017-12-21T00:57:26.222Z,16.97
2017-12-21T00:59:54.000Z,14.67
2017-12-21T01:02:22.457Z,14.23
2017-12-21T01:04:50.831Z,18.70
2017-12-21T01:07:18.358Z,17.67
2017-12-21T01:09:46.170Z,17.17
2017-12-21T01:12:14.057Z,17.80
2017-12-21T01:14:41.766Z,17.97
2017-12-21T01:17:09.615Z,16.30
2017-12-21T01:19:37.255Z,17.17
2017-12-21T01:22:04.900Z,16.30
2017-12-21T01:24:32.536Z,14.53
2017-12-21T01:27:00.327Z,9.87
2017-12-21T01:29:28.828Z,14.03
2017-12-21T01:31:57.687Z,15.57
2017-12-21T01:34:25.498Z,17.83
2017-12-21T01:36:53.173Z,15.80
2017-12-21T01:39:20.906Z,15.80
2017-12-21T01:41:49.411Z,12.70
2017-12-21T01:44:17.415Z,13.37
2017-12-21T01:46:45.237Z,15.30
2017-12-21T01:49:12.889Z,15.33
2017-12-21T01:51:40.690Z,15.53
2017-12-21T01:54:08.397Z,17.30
2017-12-21T01:56:36.078Z,12.37
2017-12-21T01:59:03.861Z,16.60
2017-12-21T02:01:31.586Z,16.30
2017-12-21T02:03:59.283Z,13.60
2017-12-21T02:06:27.707Z,16.65
2017-12-21T02:08:55.495Z,12.70
2017-12-21T02:11:23.242Z,16.50
2017-12-21T02:13:50.968Z,15.90
2017-12-21T02:16:18.681Z,15.77
2017-12-21T02:18:46.426Z,15.87
2017-12-21T02:21:14.836Z,12.70
2017-12-21T02:23:42.574Z,13.63
2017-12-21T02:26:11.013Z,13.60
2017-12-21T02:28:38.841Z,15.37
2017-12-21T02:31:06.398Z,13.10
2017-12-21T02:33:34.123Z,15.90
2017-12-21T02:36:01.872Z,12.80
2017-12-21T02:38:29.586Z,16.53
2017-12-21T02:40:58.539Z,13.30
2017-12-21T02:43:26.237Z,17.27
2017-12-21T02:45:53.963Z,14.57
2017-12-21T02:48:21.823Z,18.10
2017-12-21T02:50:49.640Z,17.43
2017-12-21T02:53:17.453Z,18.10
2017-12-21T02:55:46.052Z,16.80
2017-12-21T02:58:13.820Z,18.30
2017-12-21T03:00:41.550Z,18.57
2017-12-21T03:03:10.129Z,16.97
2017-12-21T03:05:38.679Z,17.80
2017-12-21T03:08:06.585Z,20.60
2017-12-21T03:10:35.093Z,16.87
2017-12-21T03:13:02.920Z,20.60
2017-12-21T03:15:30.639Z,19.13
2017-12-21T03:17:59.268Z,18.00
2017-12-21T03:20:27.095Z,21.87
2017-12-21T03:22:54.771Z,23.90
2017-12-21T03:25:22.439Z,24.03
2017-12-21T03:27:50.253Z,20.57
2017-12-21T03:30:18.736Z,22.90
2017-12-21T03:32:46.416Z,20.63
2017-12-21T03:35:14.449Z,22.40
2017-12-21T03:37:43.136Z,21.20
2017-12-21T03:40:10.968Z,20.83
2017-12-21T03:42:38.688Z,24.77
2017-12-21T03:45:07.277Z,22.93
2017-12-21T03:47:34.873Z,22.00
2017-12-21T03:50:02.576Z,19.03
2017-12-21T03:52:30.301Z,21.17
2017-12-21T03:54:58.359Z,21.60
2017-12-21T03:57:26.142Z,19.53
2017-12-21T03:59:53.876Z,25.80
2017-12-21T04:02:21.450Z,20.80
2017-12-21T04:04:49.329Z,20.00
2017-12-21T04:07:17.550Z,21.20
2017-12-21T04:09:45.775Z,21.70
2017-12-21T04:12:13.257Z,20.40
2017-12-21T04:14:41.106Z,22.63
2017-12-21T04:17:08.740Z,21.20
2017-12-21T04:19:36.521Z,25.80
2017-12-21T04:22:04.365Z,18.60
2017-12-21T04:24:32.795Z,25.20
2017-12-21T04:27:00.449Z,25.67
2017-12-21T04:29:28.833Z,21.27
2017-12-21T04:31:56.551Z,24.97
2017-12-21T04:34:24.235Z,19.77
2017-12-21T04:36:52.009Z,24.43
2017-12-21T04:39:19.612Z,22.00
2017-12-21T04:41:47.273Z,22.10
2017-12-21T04:44:15.035Z,20.77
2017-12-21T04:46:42.943Z,24.23
2017-12-21T04:49:10.676Z,20.30
2017-12-21T04:51:38.664Z,22.57
2017-12-21T04:54:06.295Z,19.97
2017-12-21T04:56:33.997Z,19.40
2017-12-21T04:59:01.683Z,17.77
2017-12-21T05:01:29.386Z,18.33
2017-12-21T05:03:57.079Z,20.13
2017-12-21T05:06:25.743Z,20.07
2017-12-21T05:08:53.462Z,16.50
2017-12-21T05:11:21.176Z,18.00
2017-12-21T05:13:48.770Z,18.13
2017-12-21T05:16:16.301Z,17.33
2017-12-21T05:18:44.057Z,17.80
2017-12-21T05:21:11.775Z,16.47
2017-12-21T05:23:39.424Z,16.67
2017-12-21T05:26:07.140Z,16.00
2017-12-21T05:28:34.806Z,15.07
2017-12-21T05:31:02.545Z,16.37
2017-12-21T05:33:30.244Z,15.00
2017-12-21T05:35:57.935Z,14.63
2017-12-21T05:38:26.326Z,15.87
2017-12-21T05:40:54.023Z,15.73
2017-12-21T05:43:21.759Z,15.63
2017-12-21T05:45:49.559Z,15.30
2017-12-21T05:48:17.239Z,15.90
2017-12-21T05:50:44.981Z,17.33
2017-12-21T05:53:12.700Z,15.87
2017-12-21T05:55:41.314Z,13.97
2017-12-21T05:58:09.005Z,16.47
2017-12-21T06:00:36.789Z,15.70
2017-12-21T06:03:04.800Z,11.13
2017-12-21T06:05:33.928Z,14.40
2017-12-21T06:08:02.275Z,14.03
2017-12-21T06:10:30.010Z,14.13
2017-12-21T06:12:58.456Z,14.67
2017-12-21T06:15:26.085Z,20.83
2017-12-21T06:17:53.762Z,20.30
2017-12-21T06:20:21.433Z,16.90
2017-12-21T06:22:49.430Z,14.60
2017-12-21T06:25:17.845Z,13.60
2017-12-21T06:27:45.691Z,12.30
2017-12-21T06:30:14.063Z,13.33
2017-12-21T06:32:41.745Z,13.90
2017-12-21T06:35:10.254Z,11.23
2017-12-21T06:37:37.733Z,13.83
2017-12-21T06:40:05.257Z,10.43
2017-12-21T06:42:33.867Z,12.73
2017-12-21T06:45:01.354Z,11.47
2017-12-21T06:47:28.818Z,11.70
2017-12-21T06:49:56.313Z,10.80
2017-12-21T06:52:24.322Z,12.57
2017-12-21T06:54:51.786Z,9.27
2017-12-21T06:57:19.265Z,11.50
2017-12-21T06:59:46.721Z,11.43
2017-12-21T07:02:14.201Z,9.73
2017-12-21T07:04:42.425Z,9.83
2017-12-21T07:07:09.905Z,12.00
2017-12-21T07:09:37.418Z,11.50
2017-12-21T07:12:04.882Z,11.53
2017-12-21T07:14:32.362Z,10.10
2017-12-21T07:16:59.850Z,11.27
2017-12-21T07:19:27.315Z,10.40
2017-12-21T07:21:54.810Z,10.10
2017-12-21T07:24:22.310Z,11.70
2017-12-21T07:26:49.770Z,6.50
2017-12-21T07:29:17.242Z,12.13
2017-12-21T07:31:44.721Z,9.30
2017-12-21T07:34:14.326Z,10.70
2017-12-21T07:36:41.819Z,8.10
2017-12-21T07:39:09.361Z,12.90
2017-12-21T07:41:37.601Z,11.53
2017-12-21T07:44:05.098Z,11.97
2017-12-21T07:46:33.674Z,11.80
2017-12-21T07:49:01.926Z,10.53
2017-12-21T07:51:29.409Z,11.33
2017-12-21T07:53:56.902Z,8.60
2017-12-21T07:56:24.390Z,9.77
2017-12-21T07:58:51.859Z,10.37
2017-12-21T08:01:19.342Z,10.50
2017-12-21T08:03:47.609Z,10.30
2017-12-21T08:06:15.837Z,10.23
2017-12-21T08:08:43.353Z,8.90
2017-12-21T08:11:11.593Z,9.27
2017-12-21T08:13:39.246Z,7.23
2017-12-21T08:16:06.716Z,9.60
2017-12-21T08:18:34.182Z,7.70
2017-12-21T08:21:01.664Z,10.23
2017-12-21T08:23:29.910Z,11.90
2017-12-21T08:25:57.374Z,8.33
2017-12-21T08:28:24.869Z,8.83
2017-12-21T08:30:53.097Z,13.67
2017-12-21T08:33:20.562Z,13.13
2017-12-21T08:35:48.025Z,14.77
2017-12-21T08:38:15.521Z,16.10
2017-12-21T08:40:43.054Z,15.53
2017-12-21T08:43:10.517Z,17.50
2017-12-21T08:45:37.986Z,19.97
2017-12-21T08:48:06.247Z,13.37
2017-12-21T08:50:33.706Z,18.40
2017-12-21T08:53:01.236Z,22.30
2017-12-21T08:55:28.697Z,18.53
2017-12-21T08:57:56.169Z,20.53
2017-12-21T09:00:23.652Z,9.07
2017-12-21T09:02:51.877Z,15.70
2017-12-21T09:05:19.370Z,17.27
2017-12-21T09:07:46.833Z,17.60
2017-12-21T09:10:15.093Z,16.93
2017-12-21T09:12:42.562Z,21.20
2017-12-21T09:15:10.068Z,21.80
2017-12-21T09:17:37.581Z,21.53
2017-12-21T09:20:05.058Z,21.20
2017-12-21T09:22:32.539Z,20.73
2017-12-21T09:25:00.005Z,19.10
2017-12-21T09:27:27.584Z,18.70
2017-12-21T09:29:56.024Z,18.20
2017-12-21T09:32:25.029Z,19.63
2017-12-21T09:34:52.539Z,18.12
2017-12-21T09:37:20.019Z,16.27
2017-12-21T09:39:47.501Z,16.30
2017-12-21T09:42:14.995Z,18.10
2017-12-21T09:44:42.510Z,17.63
2017-12-21T09:47:09.978Z,16.90
2017-12-21T09:49:37.446Z,15.73
2017-12-21T09:52:04.936Z,15.67
2017-12-21T09:54:32.417Z,11.10
2017-12-21T09:56:59.881Z,16.47
2017-12-21T09:59:27.389Z,15.25
2017-12-21T10:01:54.858Z,12.63
2017-12-21T10:04:22.354Z,15.30
2017-12-21T10:06:49.846Z,15.60
2017-12-21T10:09:17.334Z,17.87
2017-12-21T10:11:44.830Z,17.87
2017-12-21T10:14:13.085Z,13.20
2017-12-21T10:16:40.664Z,15.23
2017-12-21T10:19:08.154Z,13.30
2017-12-21T10:21:37.303Z,14.30
2017-12-21T10:24:04.778Z,15.77
2017-12-21T10:26:32.251Z,13.93
2017-12-21T10:28:59.748Z,14.10
2017-12-21T10:31:27.219Z,18.63
2017-12-21T10:33:54.694Z,14.70
2017-12-21T10:36:22.179Z,12.93
2017-12-21T10:38:49.682Z,12.17
2017-12-21T10:41:17.166Z,13.77
2017-12-21T10:43:44.649Z,12.47
2017-12-21T10:46:13.057Z,14.23
2017-12-21T10:48:40.550Z,13.70
2017-12-21T10:51:08.023Z,16.30
2017-12-21T10:53:35.474Z,8.77
2017-12-21T10:56:02.967Z,15.03
2017-12-21T10:58:30.477Z,16.10
2017-12-21T11:00:57.954Z,14.97
2017-12-21T11:03:25.433Z,14.30
2017-12-21T11:05:52.908Z,17.43
2017-12-21T11:08:20.402Z,16.07
2017-12-21T11:10:47.853Z,15.00
2017-12-21T11:13:15.314Z,15.03
2017-12-21T11:15:43.718Z,16.67
2017-12-21T11:18:11.197Z,13.77
2017-12-21T11:20:38.721Z,15.20
2017-12-21T11:23:06.210Z,18.27
2017-12-21T11:25:33.670Z,19.83
2017-12-21T11:28:01.196Z,20.00
2017-12-21T11:30:28.677Z,13.30
2017-12-21T11:32:56.178Z,15.25
2017-12-21T11:35:23.641Z,15.67
2017-12-21T11:37:51.121Z,15.63
2017-12-21T11:40:18.614Z,17.97
2017-12-21T11:42:47.714Z,18.20
2017-12-21T11:45:15.176Z,16.77
2017-12-21T11:47:42.650Z,13.20
2017-12-21T11:50:10.164Z,20.80
2017-12-21T11:52:37.662Z,18.27
2017-12-21T11:55:05.145Z,20.07
2017-12-21T11:57:33.393Z,18.77
2017-12-21T12:00:00.894Z,16.80
2017-12-21T12:02:28.370Z,21.60
2017-12-21T12:04:55.840Z,18.13
2017-12-21T12:07:23.318Z,18.90
2017-12-21T12:09:51.566Z,20.57
2017-12-21T12:12:19.062Z,17.50
2017-12-21T12:14:46.534Z,18.90
2017-12-21T12:17:13.993Z,17.67
2017-12-21T12:19:41.490Z,21.93
2017-12-21T12:22:08.974Z,18.17
2017-12-21T12:24:36.430Z,15.70
2017-12-21T12:27:03.919Z,12.00
2017-12-21T12:29:31.374Z,16.80
2017-12-21T12:31:58.846Z,16.77
2017-12-21T12:34:26.336Z,16.30
2017-12-21T12:36:53.797Z,15.43
2017-12-21T12:39:21.249Z,16.70
2017-12-21T12:41:48.730Z,15.17
2017-12-21T12:44:16.226Z,13.60
2017-12-21T12:46:43.845Z,17.23
2017-12-21T12:49:11.370Z,17.80
2017-12-21T12:51:39.626Z,17.33
2017-12-21T12:54:07.083Z,20.80
2017-12-21T12:56:34.702Z,16.00
2017-12-21T12:59:02.157Z,17.07
2017-12-21T13:01:29.657Z,16.23
2017-12-21T13:03:57.958Z,15.93
2017-12-21T13:06:25.442Z,14.50
2017-12-21T13:08:52.941Z,13.87
2017-12-21T13:11:20.430Z,9.40
2017-12-21T13:13:47.902Z,21.23
2017-12-21T13:16:16.000Z,17.30
2017-12-21T13:18:43.573Z,17.23
2017-12-21T13:21:11.043Z,18.93
2017-12-21T13:23:38.564Z,22.20
2017-12-21T13:26:06.030Z,16.77
2017-12-21T13:28:33.502Z,15.67
2017-12-21T13:31:00.999Z,19.40
2017-12-21T13:33:28.458Z,18.03
2017-12-21T13:35:55.946Z,16.90
2017-12-21T13:38:24.169Z,9.07
2017-12-21T13:40:51.654Z,18.12
2017-12-21T13:43:19.130Z,21.30
2017-12-21T13:45:47.379Z,16.23
2017-12-21T13:48:14.909Z,19.10
2017-12-21T13:50:43.138Z,20.40
2017-12-21T13:53:10.630Z,12.47
2017-12-21T13:55:38.095Z,17.80
2017-12-21T13:58:05.579Z,14.40
2017-12-21T14:00:33.041Z,17.27
2017-12-21T14:03:00.521Z,14.90
2017-12-21T14:05:28.004Z,17.20
2017-12-21T14:07:55.464Z,15.57
2017-12-21T14:10:22.944Z,14.97
2017-12-21T14:12:50.608Z,12.93
2017-12-21T14:15:18.086Z,16.73
2017-12-21T14:17:45.542Z,14.13
2017-12-21T14:20:13.027Z,15.00
2017-12-21T14:22:41.257Z,17.67
2017-12-21T14:25:08.753Z,14.87
2017-12-21T14:27:36.262Z,14.63
2017-12-21T14:30:03.731Z,13.00
2017-12-21T14:32:31.204Z,14.03
2017-12-21T14:34:58.706Z,12.33
2017-12-21T14:37:26.174Z,14.50
2017-12-21T14:39:54.405Z,12.53
2017-12-21T14:42:21.894Z,11.43
2017-12-21T14:44:49.386Z,10.80
2017-12-21T14:47:17.665Z,11.60
2017-12-21T14:49:45.152Z,13.30
2017-12-21T14:52:12.656Z,13.60
2017-12-21T14:54:40.113Z,13.40
2017-12-21T14:57:07.574Z,13.17
2017-12-21T14:59:35.074Z,13.07
2017-12-21T15:02:02.582Z,14.00
2017-12-21T15:04:30.054Z,14.50
2017-12-21T15:06:57.525Z,17.47
2017-12-21T15:09:25.782Z,16.73
2017-12-21T15:11:53.286Z,14.40
2017-12-21T15:14:20.758Z,16.40
2017-12-21T15:16:48.227Z,19.00
2017-12-21T15:19:15.731Z,15.10
2017-12-21T15:21:43.957Z,13.13
2017-12-21T15:24:11.422Z,15.40
2017-12-21T15:26:38.905Z,14.37
2017-12-21T15:29:06.402Z,13.80
2017-12-21T15:31:33.877Z,15.33
2017-12-21T15:34:01.438Z,15.70
2017-12-21T15:36:28.894Z,17.00
2017-12-21T15:38:56.470Z,16.00
2017-12-21T15:41:23.942Z,17.23
2017-12-21T15:43:51.439Z,13.97
2017-12-21T15:46:19.675Z,14.00
2017-12-21T15:48:47.153Z,16.30
2017-12-21T15:51:14.638Z,17.27
2017-12-21T15:53:42.137Z,14.70
2017-12-21T15:56:09.597Z,16.00
2017-12-21T15:58:37.097Z,15.70
2017-12-21T16:03:39.209Z,17.43
2017-12-21T16:06:06.675Z,13.63
2017-12-21T16:08:34.175Z,11.40
2017-12-21T16:11:01.642Z,13.80
2017-12-21T16:13:29.125Z,12.20
2017-12-21T16:15:57.385Z,12.10
2017-12-21T16:18:24.857Z,13.13
2017-12-21T16:20:52.331Z,12.47
2017-12-21T16:23:19.823Z,12.97
2017-12-21T16:25:47.282Z,13.70
2017-12-21T16:28:14.745Z,13.40
2017-12-21T16:30:42.238Z,15.03
2017-12-21T16:33:09.699Z,12.53
2017-12-21T16:35:37.178Z,12.57
2017-12-21T16:38:05.494Z,12.77
2017-12-21T16:40:32.992Z,13.37
2017-12-21T16:43:00.463Z,13.97
2017-12-21T16:45:27.943Z,13.20
2017-12-21T16:47:55.422Z,12.03
2017-12-21T16:50:22.910Z,13.00
2017-12-21T16:52:50.411Z,12.97
2017-12-21T16:55:17.865Z,12.00
2017-12-21T16:57:46.106Z,14.37
2017-12-21T17:00:13.610Z,11.97
2017-12-21T17:02:41.090Z,13.50
2017-12-21T17:05:08.550Z,13.97
2017-12-21T17:07:36.028Z,14.30
2017-12-21T17:10:03.491Z,15.13
2017-12-21T17:12:30.969Z,14.70
2017-12-21T17:14:58.454Z,13.23
2017-12-21T17:17:25.946Z,15.40
2017-12-21T17:19:53.401Z,13.70
2017-12-21T17:22:20.913Z,14.70
2017-12-21T17:24:49.157Z,11.53
2017-12-21T17:27:16.609Z,14.50
2017-12-21T17:29:44.137Z,13.90
2017-12-21T17:32:11.654Z,14.30
2017-12-21T17:34:39.149Z,11.47
2017-12-21T17:37:06.613Z,14.43
2017-12-21T17:39:34.134Z,14.40
2017-12-21T17:42:01.630Z,12.33
2017-12-21T17:44:29.086Z,13.07
2017-12-21T17:46:56.570Z,12.60
2017-12-21T17:49:24.022Z,14.20
2017-12-21T17:51:52.270Z,14.00
2017-12-21T17:54:19.758Z,14.73
2017-12-21T17:56:47.251Z,14.57
2017-12-21T17:59:14.730Z,13.93
2017-12-21T18:01:43.026Z,15.40
2017-12-21T18:04:10.518Z,17.07
2017-12-21T18:06:37.993Z,20.13
2017-12-21T18:09:05.457Z,14.70
2017-12-21T18:11:32.950Z,15.40
2017-12-21T18:14:01.183Z,15.00
2017-12-21T18:16:28.650Z,15.57
2017-12-21T18:18:56.922Z,14.00
2017-12-21T18:21:24.390Z,15.20
2017-12-21T18:23:52.649Z,15.10
2017-12-21T18:26:20.137Z,12.40
2017-12-21T18:28:48.627Z,14.07
2017-12-21T18:31:16.862Z,13.07
2017-12-21T18:33:44.415Z,14.47
2017-12-21T18:36:11.883Z,13.67
2017-12-21T18:38:39.366Z,13.40
2017-12-21T18:41:06.857Z,14.37
2017-12-21T18:43:34.328Z,13.40
2017-12-21T18:46:01.789Z,13.83
2017-12-21T18:48:29.279Z,15.20
2017-12-21T18:50:56.739Z,16.20
2017-12-21T18:53:24.217Z,16.57
2017-12-21T18:55:53.101Z,15.07
2017-12-21T18:58:20.975Z,15.43
2017-12-21T19:00:49.429Z,17.27
2017-12-21T19:03:16.924Z,15.50
2017-12-21T19:05:44.429Z,15.63
2017-12-21T19:08:12.158Z,15.57
2017-12-21T19:10:40.672Z,15.63
2017-12-21T19:13:08.137Z,18.43
2017-12-21T19:15:39.099Z,16.30
2017-12-21T19:18:06.588Z,16.57
2017-12-21T19:20:34.058Z,16.00
2017-12-21T19:23:02.278Z,18.33
2017-12-21T19:25:29.750Z,18.57
2017-12-21T19:27:57.250Z,18.40
2017-12-21T19:30:24.695Z,17.27
2017-12-21T19:32:53.114Z,19.63
2017-12-21T19:35:20.580Z,15.50
2017-12-21T19:37:48.058Z,18.33
2017-12-21T19:40:15.570Z,18.17
2017-12-21T19:42:43.853Z,19.63
2017-12-21T19:45:12.351Z,18.13
2017-12-21T19:47:40.193Z,18.33
2017-12-21T19:50:07.844Z,17.67
2017-12-21T19:52:35.355Z,24.33
2017-12-21T19:55:02.825Z,18.37
2017-12-21T19:57:30.320Z,15.70
2017-12-21T19:59:58.069Z,16.80
2017-12-21T20:02:25.617Z,17.13
2017-12-21T20:04:54.514Z,16.95
2017-12-21T20:07:21.978Z,18.40
2017-12-21T20:09:49.457Z,18.63
2017-12-21T20:12:17.781Z,18.07
2017-12-21T20:14:46.509Z,18.60
2017-12-21T20:17:14.213Z,22.50
2017-12-21T20:19:42.007Z,24.37
2017-12-21T20:22:09.807Z,21.37
2017-12-21T20:24:37.357Z,22.60
2017-12-21T20:27:04.949Z,21.30
2017-12-21T20:29:33.287Z,25.87
2017-12-21T20:32:00.796Z,22.90
2017-12-21T20:34:28.286Z,23.00
2017-12-21T20:36:56.036Z,21.00
2017-12-21T20:39:25.245Z,20.33
2017-12-21T20:41:52.752Z,21.83
2017-12-21T20:44:21.266Z,21.53
2017-12-21T20:46:48.865Z,20.17
2017-12-21T20:49:16.652Z,20.87
2017-12-21T20:51:44.294Z,21.20
2017-12-21T20:54:11.765Z,18.27
2017-12-21T20:56:39.447Z,18.17
2017-12-21T20:59:07.555Z,18.20
2017-12-21T21:01:35.597Z,17.40
2017-12-21T21:04:03.102Z,16.27
2017-12-21T21:06:30.770Z,23.43
2017-12-21T21:08:58.379Z,19.30
2017-12-21T21:11:26.750Z,19.93
2017-12-21T21:13:55.925Z,20.27
2017-12-21T21:16:24.437Z,20.67
2017-12-21T21:18:52.213Z,20.37
2017-12-21T21:21:19.745Z,21.83
2017-12-21T21:23:47.442Z,19.43
2017-12-21T21:26:15.656Z,23.70
2017-12-21T21:28:43.185Z,19.20
2017-12-21T21:31:10.668Z,20.70
2017-12-21T21:33:38.137Z,18.20
2017-12-21T21:36:05.626Z,18.33
2017-12-21T21:38:33.077Z,20.60
2017-12-21T21:41:01.322Z,18.80
2017-12-21T21:43:28.851Z,19.37
2017-12-21T21:45:56.278Z,21.20
2017-12-21T21:48:23.784Z,21.00
2017-12-21T21:50:51.245Z,20.13
2017-12-21T21:53:18.713Z,22.50
2017-12-21T21:55:46.199Z,21.50
2017-12-21T21:58:13.781Z,21.17
2017-12-21T22:00:42.042Z,22.23
2017-12-21T22:03:09.512Z,21.87
2017-12-21T22:05:36.975Z,23.70
2017-12-21T22:08:05.226Z,24.20
2017-12-21T22:10:32.693Z,24.70
2017-12-21T22:13:00.168Z,25.20
2017-12-21T22:15:28.409Z,25.20
2017-12-21T22:17:56.249Z,26.10
2017-12-21T22:20:23.713Z,25.57
2017-12-21T22:22:51.297Z,29.70
2017-12-21T22:25:18.764Z,24.47
2017-12-21T22:27:46.234Z,25.20
2017-12-21T22:30:13.716Z,24.47
2017-12-21T22:32:41.953Z,22.67
2017-12-21T22:35:09.417Z,24.17
2017-12-21T22:37:36.901Z,23.23
2017-12-21T22:40:05.149Z,24.23
2017-12-21T22:42:32.622Z,25.97
2017-12-21T22:45:00.220Z,27.10
2017-12-21T22:47:27.706Z,29.70
2017-12-21T22:49:55.205Z,25.50
2017-12-21T22:52:22.675Z,24.40
2017-12-21T22:54:50.158Z,24.27
2017-12-21T22:57:17.658Z,24.40
2017-12-21T22:59:45.118Z,22.53
2017-12-21T23:02:12.643Z,24.10
2017-12-21T23:04:40.110Z,22.97
2017-12-21T23:07:07.560Z,24.57
2017-12-21T23:09:35.041Z,25.43
2017-12-21T23:12:02.492Z,25.60
2017-12-21T23:14:30.050Z,22.67
2017-12-21T23:16:58.274Z,24.97
2017-12-21T23:19:25.730Z,25.83
2017-12-21T23:21:53.219Z,24.47
2017-12-21T23:24:20.704Z,26.63
2017-12-21T23:26:48.964Z,23.03
2017-12-21T23:29:16.417Z,24.13
2017-12-21T23:31:43.885Z,22.83
2017-12-21T23:34:11.366Z,24.43
2017-12-21T23:36:38.869Z,21.97
2017-12-21T23:39:07.165Z,23.93
2017-12-21T23:41:34.651Z,23.10
2017-12-21T23:44:02.145Z,23.93
2017-12-21T23:46:29.602Z,22.47
2017-12-21T23:48:57.077Z,22.17
2017-12-21T23:51:24.565Z,23.23
2017-12-21T23:53:52.030Z,23.70
2017-12-21T23:56:19.506Z,23.77
2017-12-21T23:58:47.730Z,22.70
